createdAt,value
2023-05-06T00:00:47.091Z,1.60
2023-05-06T00:03:15.203Z,1.80
2023-05-06T00:05:43.530Z,1.50
2023-05-06T00:08:11.000Z,1.90
2023-05-06T00:10:38.658Z,1.70
2023-05-06T00:13:06.278Z,1.90
2023-05-06T00:15:34.911Z,1.60
2023-05-06T00:18:02.907Z,1.60
2023-05-06T00:20:31.470Z,2.20
2023-05-06T00:23:00.526Z,2.10
2023-05-06T00:25:28.216Z,2.10
2023-05-06T00:27:55.775Z,1.50
2023-05-06T00:30:24.048Z,1.60
2023-05-06T00:32:51.687Z,2.00
2023-05-06T00:35:19.469Z,2.10
2023-05-06T00:37:51.051Z,1.70
2023-05-06T00:40:18.530Z,1.60
2023-05-06T00:42:46.185Z,1.90
2023-05-06T00:45:13.686Z,1.80
2023-05-06T00:47:43.162Z,1.90
2023-05-06T00:50:10.651Z,1.80
2023-05-06T00:52:40.336Z,1.60
2023-05-06T00:55:09.041Z,1.50
2023-05-06T00:57:37.413Z,2.00
2023-05-06T01:00:07.217Z,1.80
2023-05-06T01:02:46.349Z,1.90
2023-05-06T01:05:18.189Z,1.90
2023-05-06T01:08:01.715Z,1.70
2023-05-06T01:10:30.890Z,1.50
2023-05-06T01:13:30.417Z,1.90
2023-05-06T01:16:01.338Z,2.40
2023-05-06T01:18:32.610Z,2.40
2023-05-06T01:21:01.783Z,1.90
2023-05-06T01:23:29.272Z,1.80
2023-05-06T01:25:56.932Z,1.60
2023-05-06T01:28:24.820Z,2.00
2023-05-06T01:30:52.549Z,1.80
2023-05-06T01:33:42.644Z,1.90
2023-05-06T01:36:27.310Z,1.80
2023-05-06T01:39:20.126Z,2.10
2023-05-06T01:41:49.848Z,1.80
2023-05-06T01:44:18.776Z,1.80
2023-05-06T01:46:46.783Z,1.90
2023-05-06T01:49:32.209Z,1.70
2023-05-06T01:51:59.936Z,1.60
2023-05-06T01:54:27.496Z,1.50
2023-05-06T01:56:54.973Z,1.70
2023-05-06T01:59:22.788Z,1.60
2023-05-06T02:01:50.331Z,1.60
2023-05-06T02:04:17.872Z,1.50
2023-05-06T02:06:45.399Z,1.40
2023-05-06T02:09:12.927Z,2.00
2023-05-06T02:11:40.841Z,1.60
2023-05-06T02:14:08.462Z,1.90
2023-05-06T02:16:36.104Z,1.60
2023-05-06T02:19:03.944Z,2.50
2023-05-06T02:21:32.120Z,1.80
2023-05-06T02:23:59.696Z,1.70
2023-05-06T02:26:27.473Z,1.80
2023-05-06T02:28:54.910Z,1.70
2023-05-06T02:31:22.600Z,1.50
2023-05-06T02:33:50.439Z,1.60
2023-05-06T02:36:17.997Z,1.50
2023-05-06T02:38:45.629Z,1.30
2023-05-06T02:41:13.379Z,1.80
2023-05-06T02:43:40.825Z,1.40
2023-05-06T02:46:08.331Z,1.40
2023-05-06T02:48:36.195Z,1.50
2023-05-06T02:51:05.353Z,1.50
2023-05-06T02:53:33.196Z,1.70
2023-05-06T02:56:00.640Z,1.40
2023-05-06T02:58:28.158Z,1.50
2023-05-06T03:00:55.896Z,1.40
2023-05-06T03:03:23.453Z,1.40
2023-05-06T03:05:51.480Z,1.40
2023-05-06T03:08:19.297Z,1.40
2023-05-06T03:10:46.852Z,1.40
2023-05-06T03:13:14.482Z,1.60
2023-05-06T03:15:42.449Z,1.20
2023-05-06T03:18:10.257Z,1.30
2023-05-06T03:20:38.027Z,1.40
2023-05-06T03:23:05.620Z,1.30
2023-05-06T03:25:33.136Z,1.50
2023-05-06T03:28:00.811Z,1.30
2023-05-06T03:30:28.414Z,1.70
2023-05-06T03:32:57.029Z,1.50
2023-05-06T03:35:24.756Z,1.50
2023-05-06T03:37:52.424Z,1.30
2023-05-06T03:40:20.642Z,1.40
2023-05-06T03:42:48.638Z,1.40
2023-05-06T03:45:16.186Z,1.40
2023-05-06T03:47:44.135Z,1.40
2023-05-06T03:50:11.639Z,1.60
2023-05-06T03:52:39.235Z,1.80
2023-05-06T03:55:07.409Z,1.60
2023-05-06T03:57:35.062Z,1.50
2023-05-06T04:00:02.571Z,1.30
2023-05-06T04:02:30.320Z,2.00
2023-05-06T04:04:57.905Z,1.30
2023-05-06T04:07:25.585Z,1.60
2023-05-06T04:09:53.077Z,1.60
2023-05-06T04:12:20.711Z,1.60
2023-05-06T04:14:48.363Z,1.60
2023-05-06T04:17:15.832Z,1.70
2023-05-06T04:19:43.425Z,1.90
2023-05-06T04:22:10.829Z,1.50
2023-05-06T04:24:38.306Z,1.30
2023-05-06T04:27:06.395Z,1.70
2023-05-06T04:29:33.859Z,1.20
2023-05-06T04:32:02.831Z,1.60
2023-05-06T04:34:31.356Z,1.30
2023-05-06T04:36:59.156Z,1.60
2023-05-06T04:39:26.692Z,1.50
2023-05-06T04:41:54.260Z,1.60
2023-05-06T04:44:22.375Z,1.50
2023-05-06T04:46:49.879Z,1.50
2023-05-06T04:49:17.312Z,1.60
2023-05-06T04:51:44.811Z,1.30
2023-05-06T04:54:12.255Z,1.60
2023-05-06T04:56:39.736Z,1.70
2023-05-06T04:59:07.760Z,1.50
2023-05-06T05:01:35.330Z,2.00
2023-05-06T05:04:03.098Z,1.40
2023-05-06T05:06:31.952Z,1.50
2023-05-06T05:08:59.843Z,1.30
2023-05-06T05:11:29.401Z,1.40
2023-05-06T05:13:58.088Z,1.60
2023-05-06T05:16:27.144Z,1.40
2023-05-06T05:18:54.717Z,1.50
2023-05-06T05:21:22.247Z,1.20
2023-05-06T05:23:49.874Z,1.20
2023-05-06T05:26:17.416Z,1.40
2023-05-06T05:28:45.085Z,1.60
2023-05-06T05:31:12.752Z,1.70
2023-05-06T05:33:40.296Z,1.60
2023-05-06T05:36:08.290Z,1.30
2023-05-06T05:38:36.095Z,1.50
2023-05-06T05:41:04.308Z,1.30
2023-05-06T05:43:31.748Z,1.80
2023-05-06T05:45:59.257Z,1.70
2023-05-06T05:48:26.724Z,1.60
2023-05-06T05:50:54.384Z,1.60
2023-05-06T05:53:21.927Z,1.70
2023-05-06T05:55:49.573Z,1.70
2023-05-06T05:58:17.150Z,1.60
2023-05-06T06:00:44.772Z,1.80
2023-05-06T06:03:12.515Z,1.50
2023-05-06T06:05:41.241Z,1.60
2023-05-06T06:08:08.869Z,1.80
2023-05-06T06:10:36.476Z,1.80
2023-05-06T06:13:04.025Z,1.40
2023-05-06T06:15:31.675Z,1.70
2023-05-06T06:17:59.574Z,2.40
2023-05-06T06:20:27.487Z,1.50
2023-05-06T06:22:55.302Z,1.60
2023-05-06T06:25:22.881Z,1.80
2023-05-06T06:27:50.437Z,1.60
2023-05-06T06:30:18.024Z,2.00
2023-05-06T06:32:51.425Z,1.80
2023-05-06T06:35:20.248Z,1.50
2023-05-06T06:37:47.813Z,2.20
2023-05-06T06:40:16.915Z,1.80
2023-05-06T06:42:44.627Z,2.10
2023-05-06T06:45:14.044Z,1.70
2023-05-06T06:47:41.704Z,1.90
2023-05-06T06:50:10.568Z,1.80
2023-05-06T06:52:38.144Z,2.00
2023-05-06T06:55:06.389Z,1.50
2023-05-06T06:57:33.998Z,1.80
2023-05-06T07:00:01.628Z,1.80
2023-05-06T07:02:29.528Z,2.30
2023-05-06T07:04:57.045Z,2.30
2023-05-06T07:07:24.527Z,2.00
2023-05-06T07:09:51.978Z,2.00
2023-05-06T07:12:19.694Z,2.50
2023-05-06T07:14:47.189Z,2.30
2023-05-06T07:17:14.660Z,1.80
2023-05-06T07:19:42.170Z,2.50
2023-05-06T07:22:09.758Z,2.00
2023-05-06T07:24:37.240Z,1.60
2023-05-06T07:27:04.811Z,1.50
2023-05-06T07:29:32.594Z,1.90
2023-05-06T07:32:00.616Z,1.80
2023-05-06T07:34:28.100Z,1.70
2023-05-06T07:36:56.036Z,1.80
2023-05-06T07:39:23.506Z,2.00
2023-05-06T07:41:51.573Z,2.20
2023-05-06T07:44:19.272Z,1.90
2023-05-06T07:46:46.971Z,2.30
2023-05-06T07:49:14.584Z,1.70
2023-05-06T07:51:42.789Z,3.10
2023-05-06T07:54:11.183Z,4.80
2023-05-06T07:56:38.957Z,4.30
2023-05-06T07:59:06.610Z,2.10
2023-05-06T08:01:34.077Z,2.00
2023-05-06T08:04:01.637Z,2.30
2023-05-06T08:06:29.348Z,2.30
2023-05-06T08:08:56.900Z,7.90
2023-05-06T08:11:24.502Z,2.70
2023-05-06T08:13:51.936Z,6.80
2023-05-06T08:16:19.479Z,2.50
2023-05-06T08:18:46.968Z,3.30
2023-05-06T08:21:14.443Z,2.00
2023-05-06T08:23:42.043Z,1.70
2023-05-06T08:26:09.664Z,1.90
2023-05-06T08:28:37.351Z,5.20
2023-05-06T08:31:04.920Z,3.90
2023-05-06T08:33:32.699Z,2.00
2023-05-06T08:36:00.477Z,1.80
2023-05-06T08:38:27.986Z,1.80
2023-05-06T08:41:03.205Z,3.90
2023-05-06T08:43:35.952Z,3.30
2023-05-06T08:46:03.721Z,2.10
2023-05-06T08:48:31.412Z,2.30
2023-05-06T08:51:02.089Z,1.90
2023-05-06T08:53:32.220Z,1.90
2023-05-06T08:56:04.104Z,1.80
2023-05-06T08:58:40.315Z,2.00
2023-05-06T09:01:09.622Z,1.80
2023-05-06T09:03:37.658Z,1.80
2023-05-06T09:06:05.334Z,2.20
2023-05-06T09:08:32.996Z,2.00
2023-05-06T09:11:00.580Z,1.60
2023-05-06T09:13:28.210Z,2.00
2023-05-06T09:15:55.767Z,4.10
2023-05-06T09:18:23.704Z,2.50
2023-05-06T09:20:51.427Z,1.80
2023-05-06T09:23:19.603Z,2.20
2023-05-06T09:25:47.627Z,2.10
2023-05-06T09:28:15.228Z,1.70
2023-05-06T09:30:45.010Z,2.00
2023-05-06T09:33:12.712Z,2.90
2023-05-06T09:35:42.835Z,3.50
2023-05-06T09:38:10.507Z,2.10
2023-05-06T09:40:39.098Z,2.10
2023-05-06T09:43:07.695Z,2.40
2023-05-06T09:45:36.141Z,1.80
2023-05-06T09:48:04.137Z,1.90
2023-05-06T09:50:32.801Z,2.60
2023-05-06T09:53:00.901Z,1.90
2023-05-06T09:55:29.846Z,2.10
2023-05-06T09:58:00.778Z,1.90
2023-05-06T10:00:30.776Z,2.40
2023-05-06T10:02:58.934Z,2.00
2023-05-06T10:05:28.997Z,2.30
2023-05-06T10:07:57.213Z,2.30
2023-05-06T10:10:29.081Z,2.30
2023-05-06T10:12:56.710Z,2.20
2023-05-06T10:15:26.196Z,1.90
2023-05-06T10:17:55.534Z,2.00
2023-05-06T10:20:25.414Z,1.90
2023-05-06T10:23:09.078Z,2.20
2023-05-06T10:25:46.836Z,1.70
2023-05-06T10:28:30.607Z,2.00
2023-05-06T10:31:03.509Z,2.10
2023-05-06T10:33:31.536Z,2.80
2023-05-06T10:36:32.416Z,2.70
2023-05-06T10:39:03.335Z,1.60
2023-05-06T10:41:32.041Z,1.90
2023-05-06T10:44:02.182Z,2.50
2023-05-06T10:46:30.586Z,7.20
2023-05-06T10:49:19.999Z,3.40
2023-05-06T10:51:48.464Z,2.20
2023-05-06T10:54:19.220Z,2.10
2023-05-06T10:56:47.997Z,2.00
2023-05-06T10:59:25.758Z,1.70
2023-05-06T11:01:57.247Z,1.60
2023-05-06T11:04:24.798Z,2.00
2023-05-06T11:06:55.415Z,2.00
2023-05-06T11:09:26.984Z,1.80
2023-05-06T11:12:02.634Z,2.00
2023-05-06T11:14:39.262Z,2.20
2023-05-06T11:17:10.029Z,1.70
2023-05-06T11:19:41.334Z,2.00
2023-05-06T11:22:08.805Z,1.70
2023-05-06T11:24:41.400Z,2.20
2023-05-06T11:27:10.462Z,1.60
2023-05-06T11:29:38.033Z,2.00
2023-05-06T11:32:19.330Z,1.90
2023-05-06T11:34:46.941Z,1.80
2023-05-06T11:37:25.960Z,1.90
2023-05-06T11:39:53.610Z,2.00
2023-05-06T11:42:26.240Z,1.90
2023-05-06T11:44:55.461Z,1.90
2023-05-06T11:47:24.269Z,1.80
2023-05-06T11:49:55.877Z,2.40
2023-05-06T11:52:23.499Z,2.10
2023-05-06T11:54:54.110Z,1.90
2023-05-06T11:57:21.764Z,1.90
2023-05-06T11:59:55.272Z,1.80
2023-05-06T12:02:22.917Z,2.10
2023-05-06T12:04:51.280Z,2.20
2023-05-06T12:07:18.937Z,2.40
2023-05-06T12:09:48.934Z,2.00
2023-05-06T12:12:23.982Z,2.10
2023-05-06T12:14:53.191Z,1.90
2023-05-06T12:17:21.348Z,2.30
2023-05-06T12:19:49.188Z,2.20
2023-05-06T12:22:24.660Z,1.90
2023-05-06T12:24:52.619Z,1.80
2023-05-06T12:27:36.304Z,2.20
2023-05-06T12:30:09.091Z,6.60
2023-05-06T12:32:57.419Z,3.20
2023-05-06T12:35:30.469Z,2.30
2023-05-06T12:38:09.366Z,2.50
2023-05-06T12:40:37.610Z,2.10
2023-05-06T12:43:05.226Z,2.20
2023-05-06T12:45:32.983Z,2.40
2023-05-06T12:48:03.830Z,2.00
2023-05-06T12:50:41.550Z,2.50
2023-05-06T12:53:15.856Z,2.40
2023-05-06T12:55:45.309Z,2.10
2023-05-06T12:58:20.712Z,2.20
2023-05-06T13:00:48.277Z,2.10
2023-05-06T13:03:15.947Z,2.50
2023-05-06T13:05:48.175Z,2.60
2023-05-06T13:08:16.053Z,2.70
2023-05-06T13:10:44.562Z,2.30
2023-05-06T13:13:12.357Z,2.50
2023-05-06T13:15:41.416Z,2.70
2023-05-06T13:18:11.583Z,2.70
2023-05-06T13:20:39.415Z,3.20
2023-05-06T13:23:07.246Z,4.70
2023-05-06T13:25:44.610Z,3.50
2023-05-06T13:28:19.725Z,2.50
2023-05-06T13:30:47.755Z,2.40
2023-05-06T13:33:15.398Z,2.30
2023-05-06T13:35:46.703Z,2.10
2023-05-06T13:38:14.767Z,2.10
2023-05-06T13:40:48.952Z,2.70
2023-05-06T13:43:18.433Z,2.40
2023-05-06T13:45:53.054Z,2.00
2023-05-06T13:48:20.835Z,2.10
2023-05-06T13:50:49.373Z,2.10
2023-05-06T13:53:17.267Z,1.90
2023-05-06T13:55:46.825Z,1.70
2023-05-06T13:58:14.609Z,1.80
2023-05-06T14:00:42.673Z,1.90
2023-05-06T14:03:10.369Z,2.00
2023-05-06T14:05:38.133Z,66.30
2023-05-06T14:08:06.056Z,198.50
2023-05-06T14:10:33.609Z,338.60
2023-05-06T14:13:01.131Z,522.10
2023-05-06T14:15:28.713Z,199.60
2023-05-06T14:17:56.323Z,47.80
2023-05-06T14:20:24.306Z,32.80
2023-05-06T14:22:52.002Z,7.40
2023-05-06T14:25:19.892Z,3.20
2023-05-06T14:27:47.482Z,2.40
2023-05-06T14:30:15.103Z,2.00
2023-05-06T14:32:43.694Z,1.80
2023-05-06T14:35:11.596Z,1.60
2023-05-06T14:37:39.426Z,54.60
2023-05-06T14:40:11.938Z,294.10
2023-05-06T14:42:39.456Z,30.80
2023-05-06T14:45:08.487Z,73.60
2023-05-06T14:47:36.620Z,39.00
2023-05-06T14:50:04.511Z,11.20
2023-05-06T14:52:31.950Z,4.50
2023-05-06T14:54:59.610Z,6.00
2023-05-06T14:57:27.294Z,3.70
2023-05-06T14:59:54.827Z,2.80
2023-05-06T15:02:22.443Z,2.30
2023-05-06T15:04:49.973Z,5.40
2023-05-06T15:07:17.794Z,2.70
2023-05-06T15:09:45.609Z,2.10
2023-05-06T15:12:13.723Z,2.20
2023-05-06T15:14:41.277Z,2.50
2023-05-06T15:17:08.965Z,2.30
2023-05-06T15:19:36.588Z,2.10
2023-05-06T15:22:04.350Z,29.70
2023-05-06T15:24:32.108Z,170.40
2023-05-06T15:26:59.755Z,22.70
2023-05-06T15:29:27.249Z,32.20
2023-05-06T15:31:54.961Z,26.00
2023-05-06T15:34:22.615Z,51.10
2023-05-06T15:36:52.806Z,102.30
2023-05-06T15:39:21.040Z,120.90
2023-05-06T15:41:48.663Z,200.10
2023-05-06T15:44:16.548Z,51.50
2023-05-06T15:46:45.080Z,60.00
2023-05-06T15:49:45.578Z,38.50
2023-05-06T15:52:01.428Z,12.00
2023-05-06T15:54:29.405Z,9.80
2023-05-06T15:56:58.358Z,8.50
2023-05-06T15:59:26.978Z,4.70
2023-05-06T16:04:25.549Z,7.40
2023-05-06T16:06:53.709Z,2.80
2023-05-06T16:09:21.671Z,3.10
2023-05-06T16:11:49.324Z,31.50
2023-05-06T16:14:16.947Z,51.70
2023-05-06T16:16:44.558Z,25.80
2023-05-06T16:19:12.196Z,260.30
2023-05-06T16:21:39.678Z,189.90
2023-05-06T16:24:07.330Z,78.30
2023-05-06T16:26:35.853Z,64.80
2023-05-06T16:29:03.455Z,72.90
2023-05-06T16:31:32.500Z,107.30
2023-05-06T16:34:00.158Z,73.00
2023-05-06T16:36:28.715Z,172.00
2023-05-06T16:38:56.319Z,57.40
2023-05-06T16:41:24.407Z,265.70
2023-05-06T16:43:51.905Z,119.40
2023-05-06T16:46:20.499Z,61.40
2023-05-06T16:48:50.232Z,21.80
2023-05-06T16:51:17.873Z,19.60
2023-05-06T16:53:45.869Z,35.40
2023-05-06T16:56:13.530Z,4.80
2023-05-06T16:58:42.855Z,18.90
2023-05-06T17:01:11.916Z,7.20
2023-05-06T17:03:40.575Z,5.50
2023-05-06T17:06:09.212Z,5.80
2023-05-06T17:08:37.534Z,3.80
2023-05-06T17:11:06.734Z,99.00
2023-05-06T17:13:34.744Z,14.50
2023-05-06T17:16:02.293Z,137.20
2023-05-06T17:18:29.887Z,79.90
2023-05-06T17:20:57.685Z,155.50
2023-05-06T17:23:25.442Z,253.70
2023-05-06T17:25:55.897Z,176.20
2023-05-06T17:28:23.435Z,84.90
2023-05-06T17:30:51.398Z,38.90
2023-05-06T17:33:18.996Z,18.50
2023-05-06T17:35:46.573Z,35.50
2023-05-06T17:38:14.650Z,20.40
2023-05-06T17:40:43.730Z,12.40
2023-05-06T17:43:11.286Z,26.70
2023-05-06T17:45:41.169Z,110.20
2023-05-06T17:48:08.990Z,144.90
2023-05-06T17:50:36.855Z,162.10
2023-05-06T17:53:04.348Z,215.60
2023-05-06T17:55:31.925Z,221.00
2023-05-06T17:57:59.572Z,75.00
2023-05-06T18:00:27.105Z,131.50
2023-05-06T18:02:55.571Z,165.60
2023-05-06T18:05:25.628Z,116.10
2023-05-06T18:07:53.223Z,260.80
2023-05-06T18:10:20.915Z,67.20
2023-05-06T18:12:48.567Z,26.30
2023-05-06T18:15:16.012Z,19.50
2023-05-06T18:17:43.714Z,9.00
2023-05-06T18:20:12.337Z,3.50
2023-05-06T18:22:40.044Z,3.20
2023-05-06T18:25:08.762Z,2.50
2023-05-06T18:27:37.160Z,2.00
2023-05-06T18:30:06.047Z,1.90
2023-05-06T18:32:34.711Z,2.80
2023-05-06T18:35:02.350Z,6.90
2023-05-06T18:37:30.037Z,9.10
2023-05-06T18:39:57.532Z,9.30
2023-05-06T18:42:27.326Z,10.50
2023-05-06T18:44:56.313Z,12.00
2023-05-06T18:47:25.837Z,8.30
2023-05-06T18:49:57.536Z,9.70
2023-05-06T18:52:25.115Z,10.50
2023-05-06T18:54:52.681Z,4.20
2023-05-06T18:57:20.200Z,5.60
2023-05-06T18:59:47.737Z,9.50
2023-05-06T19:02:15.483Z,6.80
2023-05-06T19:04:43.480Z,6.90
2023-05-06T19:07:11.161Z,6.40
2023-05-06T19:09:38.676Z,4.80
2023-05-06T19:12:06.291Z,4.60
2023-05-06T19:14:34.683Z,5.50
2023-05-06T19:17:03.555Z,5.20
2023-05-06T19:19:31.307Z,5.00
2023-05-06T19:22:00.029Z,21.10
2023-05-06T19:24:29.472Z,6.30
2023-05-06T19:26:57.016Z,9.60
2023-05-06T19:29:24.800Z,11.40
2023-05-06T19:31:52.316Z,19.80
2023-05-06T19:34:20.041Z,37.20
2023-05-06T19:36:47.837Z,41.20
2023-05-06T19:39:16.323Z,37.10
2023-05-06T19:41:43.845Z,29.60
2023-05-06T19:44:11.530Z,19.50
2023-05-06T19:46:39.483Z,23.80
2023-05-06T19:49:07.280Z,15.80
2023-05-06T19:51:34.735Z,13.60
2023-05-06T19:54:02.224Z,43.70
2023-05-06T19:56:29.772Z,16.50
2023-05-06T19:58:57.270Z,18.40
2023-05-06T20:01:27.020Z,19.40
2023-05-06T20:03:55.271Z,26.00
2023-05-06T20:06:23.084Z,25.60
2023-05-06T20:08:50.582Z,17.60
2023-05-06T20:11:18.068Z,14.20
2023-05-06T20:13:45.721Z,10.20
2023-05-06T20:16:13.342Z,7.80
2023-05-06T20:18:40.852Z,7.00
2023-05-06T20:21:08.494Z,6.80
2023-05-06T20:23:36.080Z,13.10
2023-05-06T20:26:03.580Z,14.80
2023-05-06T20:28:31.973Z,11.10
2023-05-06T20:30:59.712Z,28.60
2023-05-06T20:33:27.558Z,24.90
2023-05-06T20:35:55.326Z,10.50
2023-05-06T20:38:22.943Z,23.80
2023-05-06T20:40:50.517Z,25.20
2023-05-06T20:43:18.115Z,24.40
2023-05-06T20:45:45.961Z,19.20
2023-05-06T20:48:15.135Z,27.90
2023-05-06T20:50:43.172Z,35.80
2023-05-06T20:53:10.756Z,32.50
2023-05-06T20:55:38.243Z,35.70
2023-05-06T20:58:06.084Z,37.60
2023-05-06T21:00:33.650Z,40.80
2023-05-06T21:03:01.413Z,29.60
2023-05-06T21:05:29.280Z,21.90
2023-05-06T21:07:56.865Z,21.90
2023-05-06T21:10:24.349Z,16.40
2023-05-06T21:12:52.077Z,13.30
2023-05-06T21:15:19.692Z,13.00
2023-05-06T21:17:48.857Z,9.90
2023-05-06T21:20:16.452Z,10.10
2023-05-06T21:22:44.001Z,8.10
2023-05-06T21:25:13.407Z,20.00
2023-05-06T21:27:41.213Z,52.80
2023-05-06T21:30:09.397Z,51.00
2023-05-06T21:32:37.090Z,57.40
2023-05-06T21:35:05.275Z,66.00
2023-05-06T21:37:32.844Z,64.70
2023-05-06T21:40:02.943Z,57.00
2023-05-06T21:42:30.986Z,43.30
2023-05-06T21:44:58.538Z,31.70
2023-05-06T21:47:26.290Z,11.90
2023-05-06T21:49:53.851Z,7.10
2023-05-06T21:52:21.479Z,7.20
2023-05-06T21:54:49.070Z,6.20
2023-05-06T21:57:16.707Z,7.70
2023-05-06T21:59:44.291Z,5.80
2023-05-06T22:02:11.801Z,5.80
2023-05-06T22:04:39.486Z,10.20
2023-05-06T22:07:07.209Z,10.60
2023-05-06T22:09:34.759Z,11.20
2023-05-06T22:12:06.509Z,11.80
2023-05-06T22:14:41.015Z,16.30
2023-05-06T22:17:10.599Z,14.90
2023-05-06T22:19:38.989Z,16.40
2023-05-06T22:22:07.065Z,16.30
2023-05-06T22:24:34.669Z,14.20
2023-05-06T22:27:03.469Z,13.40
2023-05-06T22:29:35.064Z,12.60
2023-05-06T22:32:03.518Z,10.10
2023-05-06T22:34:31.368Z,8.90
2023-05-06T22:37:00.503Z,7.60
2023-05-06T22:39:28.759Z,11.40
2023-05-06T22:41:57.248Z,14.60
2023-05-06T22:44:24.792Z,11.90
2023-05-06T22:46:52.343Z,8.50
2023-05-06T22:49:20.063Z,8.30
2023-05-06T22:51:47.646Z,8.10
2023-05-06T22:54:15.191Z,11.40
2023-05-06T22:56:42.701Z,12.40
2023-05-06T22:59:10.806Z,10.30
2023-05-06T23:01:38.375Z,11.10
2023-05-06T23:04:06.198Z,10.20
2023-05-06T23:06:33.790Z,10.20
2023-05-06T23:09:01.325Z,10.80
2023-05-06T23:11:28.846Z,10.80
2023-05-06T23:13:56.341Z,8.10
2023-05-06T23:16:23.901Z,6.50
2023-05-06T23:18:51.511Z,4.80
2023-05-06T23:21:19.013Z,4.90
2023-05-06T23:23:46.773Z,6.40
2023-05-06T23:26:14.384Z,5.80
2023-05-06T23:28:44.282Z,4.40
2023-05-06T23:31:12.129Z,4.20
2023-05-06T23:33:40.097Z,5.20
2023-05-06T23:36:07.990Z,5.90
2023-05-06T23:38:35.564Z,5.20
2023-05-06T23:41:03.693Z,5.20
2023-05-06T23:43:31.207Z,8.90
2023-05-06T23:45:58.745Z,8.80
2023-05-06T23:48:26.373Z,9.00
2023-05-06T23:50:54.530Z,6.60
2023-05-06T23:53:22.264Z,8.90
2023-05-06T23:55:50.035Z,10.60
2023-05-06T23:58:17.574Z,11.10
